sensor_id;sensor_type;location;lat;lon;timestamp;pressure;altitude;pressure_sealevel;temperature;humidity
35910;BME280;22004;49.120;-0.200;2023-11-19T00:01:07;101273.59;;;13.82;100.00
35910;BME280;22004;49.120;-0.200;2023-11-19T00:03:33;101269.69;;;13.85;100.00
35910;BME280;22004;49.120;-0.200;2023-11-19T00:05:58;101262.25;;;13.72;100.00
35910;BME280;22004;49.120;-0.200;2023-11-19T00:08:24;101271.63;;;13.76;100.00
35910;BME280;22004;49.120;-0.200;2023-11-19T00:10:50;101263.44;;;13.84;100.00
35910;BME280;22004;49.120;-0.200;2023-11-19T00:13:16;101257.38;;;13.82;100.00
35910;BME280;22004;49.120;-0.200;2023-11-19T00:15:41;101251.72;;;13.77;100.00
35910;BME280;22004;49.120;-0.200;2023-11-19T00:18:07;101254.81;;;13.74;100.00
35910;BME280;22004;49.120;-0.200;2023-11-19T00:20:33;101254.63;;;13.76;100.00
35910;BME280;22004;49.120;-0.200;2023-11-19T00:22:58;101269.59;;;13.78;100.00
35910;BME280;22004;49.120;-0.200;2023-11-19T00:25:23;101272.28;;;13.93;100.00
35910;BME280;22004;49.120;-0.200;2023-11-19T00:27:50;101268.78;;;13.78;100.00
35910;BME280;22004;49.120;-0.200;2023-11-19T00:30:16;101257.88;;;13.71;100.00
35910;BME280;22004;49.120;-0.200;2023-11-19T00:32:41;101256.75;;;13.80;100.00
35910;BME280;22004;49.120;-0.200;2023-11-19T00:35:07;101264.84;;;13.80;100.00
35910;BME280;22004;49.120;-0.200;2023-11-19T00:37:33;101264.22;;;13.78;100.00
35910;BME280;22004;49.120;-0.200;2023-11-19T00:39:59;101268.09;;;13.76;100.00
35910;BME280;22004;49.120;-0.200;2023-11-19T00:42:24;101270.59;;;13.77;100.00
35910;BME280;22004;49.120;-0.200;2023-11-19T00:44:52;101265.34;;;13.69;100.00
35910;BME280;22004;49.120;-0.200;2023-11-19T00:47:18;101265.97;;;13.71;100.00
35910;BME280;22004;49.120;-0.200;2023-11-19T00:49:46;101261.81;;;13.68;100.00
35910;BME280;22004;49.120;-0.200;2023-11-19T00:52:13;101267.63;;;13.72;100.00
35910;BME280;22004;49.120;-0.200;2023-11-19T00:54:39;101266.81;;;13.71;100.00
35910;BME280;22004;49.120;-0.200;2023-11-19T00:57:04;101275.47;;;13.67;100.00
35910;BME280;22004;49.120;-0.200;2023-11-19T00:59:31;101269.78;;;13.62;100.00
35910;BME280;22004;49.120;-0.200;2023-11-19T01:01:56;101263.53;;;13.76;100.00
35910;BME280;22004;49.120;-0.200;2023-11-19T01:04:21;101258.91;;;13.70;100.00
35910;BME280;22004;49.120;-0.200;2023-11-19T01:06:47;101262.44;;;13.70;100.00
35910;BME280;22004;49.120;-0.200;2023-11-19T01:09:12;101259.47;;;13.65;100.00
35910;BME280;22004;49.120;-0.200;2023-11-19T01:11:37;101264.09;;;13.71;100.00
35910;BME280;22004;49.120;-0.200;2023-11-19T01:14:03;101266.38;;;13.68;100.00
35910;BME280;22004;49.120;-0.200;2023-11-19T01:16:28;101268.78;;;13.63;100.00
35910;BME280;22004;49.120;-0.200;2023-11-19T01:18:54;101274.63;;;13.66;100.00
35910;BME280;22004;49.120;-0.200;2023-11-19T01:21:19;101276.78;;;13.71;100.00
35910;BME280;22004;49.120;-0.200;2023-11-19T01:23:45;101280.31;;;13.57;100.00
35910;BME280;22004;49.120;-0.200;2023-11-19T01:26:11;101279.59;;;13.48;100.00
35910;BME280;22004;49.120;-0.200;2023-11-19T01:28:37;101290.81;;;13.52;100.00
35910;BME280;22004;49.120;-0.200;2023-11-19T01:31:04;101289.34;;;13.49;100.00
35910;BME280;22004;49.120;-0.200;2023-11-19T01:33:30;101279.19;;;13.51;100.00
35910;BME280;22004;49.120;-0.200;2023-11-19T01:35:56;101270.00;;;13.45;100.00
35910;BME280;22004;49.120;-0.200;2023-11-19T01:38:24;101275.47;;;13.52;100.00
35910;BME280;22004;49.120;-0.200;2023-11-19T01:40:49;101282.28;;;13.48;100.00
35910;BME280;22004;49.120;-0.200;2023-11-19T01:43:37;101275.41;;;13.45;100.00
35910;BME280;22004;49.120;-0.200;2023-11-19T01:46:05;101277.47;;;13.43;100.00
35910;BME280;22004;49.120;-0.200;2023-11-19T01:48:31;101280.16;;;13.43;100.00
35910;BME280;22004;49.120;-0.200;2023-11-19T01:50:58;101288.88;;;13.45;100.00
35910;BME280;22004;49.120;-0.200;2023-11-19T01:53:23;101283.56;;;13.37;100.00
35910;BME280;22004;49.120;-0.200;2023-11-19T01:55:50;101287.13;;;13.38;100.00
35910;BME280;22004;49.120;-0.200;2023-11-19T01:58:16;101287.00;;;13.31;100.00
35910;BME280;22004;49.120;-0.200;2023-11-19T02:00:42;101284.44;;;13.23;100.00
35910;BME280;22004;49.120;-0.200;2023-11-19T02:03:09;101287.78;;;13.40;100.00
35910;BME280;22004;49.120;-0.200;2023-11-19T02:05:35;101291.28;;;13.26;100.00
35910;BME280;22004;49.120;-0.200;2023-11-19T02:08:01;101290.66;;;13.01;100.00
35910;BME280;22004;49.120;-0.200;2023-11-19T02:10:27;101302.06;;;13.26;100.00
35910;BME280;22004;49.120;-0.200;2023-11-19T02:12:52;101298.84;;;13.07;100.00
35910;BME280;22004;49.120;-0.200;2023-11-19T02:15:18;101293.50;;;13.22;100.00
35910;BME280;22004;49.120;-0.200;2023-11-19T02:17:50;101299.47;;;13.32;100.00
35910;BME280;22004;49.120;-0.200;2023-11-19T02:20:15;101296.56;;;13.19;100.00
35910;BME280;22004;49.120;-0.200;2023-11-19T02:22:41;101303.94;;;13.25;100.00
35910;BME280;22004;49.120;-0.200;2023-11-19T02:25:30;101298.06;;;13.22;100.00
35910;BME280;22004;49.120;-0.200;2023-11-19T02:28:01;101301.06;;;13.27;100.00
35910;BME280;22004;49.120;-0.200;2023-11-19T02:30:28;101302.16;;;13.32;100.00
35910;BME280;22004;49.120;-0.200;2023-11-19T02:32:57;101302.16;;;13.32;100.00
35910;BME280;22004;49.120;-0.200;2023-11-19T02:35:24;101309.81;;;13.29;100.00
35910;BME280;22004;49.120;-0.200;2023-11-19T02:37:51;101316.94;;;13.22;100.00
35910;BME280;22004;49.120;-0.200;2023-11-19T02:40:16;101310.88;;;13.19;100.00
35910;BME280;22004;49.120;-0.200;2023-11-19T02:42:42;101307.47;;;13.40;100.00
35910;BME280;22004;49.120;-0.200;2023-11-19T02:45:08;101303.78;;;13.04;100.00
35910;BME280;22004;49.120;-0.200;2023-11-19T02:47:39;101309.34;;;13.02;100.00
35910;BME280;22004;49.120;-0.200;2023-11-19T02:50:04;101301.88;;;13.27;100.00
35910;BME280;22004;49.120;-0.200;2023-11-19T02:52:32;101293.84;;;13.04;100.00
35910;BME280;22004;49.120;-0.200;2023-11-19T02:55:02;101296.47;;;12.75;100.00
35910;BME280;22004;49.120;-0.200;2023-11-19T02:57:31;101291.75;;;12.91;100.00
35910;BME280;22004;49.120;-0.200;2023-11-19T02:59:57;101291.13;;;12.89;100.00
35910;BME280;22004;49.120;-0.200;2023-11-19T03:02:22;101283.28;;;12.80;100.00
35910;BME280;22004;49.120;-0.200;2023-11-19T03:04:49;101287.34;;;12.76;100.00
35910;BME280;22004;49.120;-0.200;2023-11-19T03:07:14;101276.03;;;12.80;100.00
35910;BME280;22004;49.120;-0.200;2023-11-19T03:09:40;101278.59;;;12.59;100.00
35910;BME280;22004;49.120;-0.200;2023-11-19T03:12:06;101280.41;;;12.81;100.00
35910;BME280;22004;49.120;-0.200;2023-11-19T03:14:33;101282.69;;;13.07;100.00
35910;BME280;22004;49.120;-0.200;2023-11-19T03:16:59;101281.81;;;12.31;100.00
35910;BME280;22004;49.120;-0.200;2023-11-19T03:19:25;101281.53;;;12.49;100.00
35910;BME280;22004;49.120;-0.200;2023-11-19T03:21:52;101290.56;;;12.94;100.00
35910;BME280;22004;49.120;-0.200;2023-11-19T03:24:17;101298.28;;;12.59;100.00
35910;BME280;22004;49.120;-0.200;2023-11-19T03:26:42;101295.34;;;12.69;100.00
35910;BME280;22004;49.120;-0.200;2023-11-19T03:29:08;101295.88;;;12.64;100.00
35910;BME280;22004;49.120;-0.200;2023-11-19T03:31:33;101294.75;;;12.59;100.00
35910;BME280;22004;49.120;-0.200;2023-11-19T03:33:58;101300.31;;;12.95;100.00
35910;BME280;22004;49.120;-0.200;2023-11-19T03:36:24;101300.00;;;12.75;100.00
35910;BME280;22004;49.120;-0.200;2023-11-19T03:38:49;101301.75;;;12.83;100.00
35910;BME280;22004;49.120;-0.200;2023-11-19T03:41:15;101297.50;;;12.74;100.00
35910;BME280;22004;49.120;-0.200;2023-11-19T03:43:41;101295.88;;;12.41;100.00
35910;BME280;22004;49.120;-0.200;2023-11-19T03:46:20;101293.78;;;12.52;100.00
35910;BME280;22004;49.120;-0.200;2023-11-19T03:48:49;101286.66;;;12.59;100.00
35910;BME280;22004;49.120;-0.200;2023-11-19T03:51:15;101276.97;;;12.50;100.00
35910;BME280;22004;49.120;-0.200;2023-11-19T03:53:44;101287.59;;;12.66;100.00
35910;BME280;22004;49.120;-0.200;2023-11-19T03:56:10;101288.69;;;12.57;100.00
35910;BME280;22004;49.120;-0.200;2023-11-19T03:58:35;101286.91;;;12.49;100.00
35910;BME280;22004;49.120;-0.200;2023-11-19T04:01:01;101288.16;;;12.61;100.00
35910;BME280;22004;49.120;-0.200;2023-11-19T04:03:27;101298.09;;;12.61;100.00
35910;BME280;22004;49.120;-0.200;2023-11-19T04:05:52;101294.06;;;12.57;100.00
35910;BME280;22004;49.120;-0.200;2023-11-19T04:08:18;101291.13;;;12.66;100.00
35910;BME280;22004;49.120;-0.200;2023-11-19T04:10:43;101295.38;;;12.84;100.00
35910;BME280;22004;49.120;-0.200;2023-11-19T04:13:08;101292.25;;;12.72;100.00
35910;BME280;22004;49.120;-0.200;2023-11-19T04:15:34;101298.22;;;12.45;100.00
35910;BME280;22004;49.120;-0.200;2023-11-19T04:17:59;101293.66;;;12.45;100.00
35910;BME280;22004;49.120;-0.200;2023-11-19T04:20:24;101291.84;;;12.37;100.00
35910;BME280;22004;49.120;-0.200;2023-11-19T04:22:50;101297.25;;;12.60;100.00
35910;BME280;22004;49.120;-0.200;2023-11-19T04:25:16;101288.03;;;12.92;100.00
35910;BME280;22004;49.120;-0.200;2023-11-19T04:27:42;101289.16;;;12.83;100.00
35910;BME280;22004;49.120;-0.200;2023-11-19T04:30:07;101290.19;;;12.59;100.00
35910;BME280;22004;49.120;-0.200;2023-11-19T04:32:36;101293.53;;;12.61;100.00
35910;BME280;22004;49.120;-0.200;2023-11-19T04:35:01;101295.94;;;12.79;100.00
35910;BME280;22004;49.120;-0.200;2023-11-19T04:37:26;101294.53;;;12.83;100.00
35910;BME280;22004;49.120;-0.200;2023-11-19T04:39:52;101295.63;;;12.74;100.00
35910;BME280;22004;49.120;-0.200;2023-11-19T04:42:17;101296.47;;;12.52;100.00
35910;BME280;22004;49.120;-0.200;2023-11-19T04:44:43;101294.84;;;12.65;100.00
35910;BME280;22004;49.120;-0.200;2023-11-19T04:47:08;101297.84;;;12.48;100.00
35910;BME280;22004;49.120;-0.200;2023-11-19T04:49:40;101295.88;;;12.41;100.00
35910;BME280;22004;49.120;-0.200;2023-11-19T04:52:05;101302.97;;;12.11;100.00
35910;BME280;22004;49.120;-0.200;2023-11-19T04:54:30;101304.44;;;12.45;100.00
35910;BME280;22004;49.120;-0.200;2023-11-19T04:56:56;101308.38;;;12.34;100.00
35910;BME280;22004;49.120;-0.200;2023-11-19T04:59:21;101314.16;;;12.23;100.00
35910;BME280;22004;49.120;-0.200;2023-11-19T05:01:47;101313.34;;;11.83;100.00
35910;BME280;22004;49.120;-0.200;2023-11-19T05:04:13;101308.25;;;12.28;100.00
35910;BME280;22004;49.120;-0.200;2023-11-19T05:06:39;101307.06;;;11.99;100.00
35910;BME280;22004;49.120;-0.200;2023-11-19T05:09:04;101315.03;;;12.24;100.00
35910;BME280;22004;49.120;-0.200;2023-11-19T05:11:33;101316.00;;;12.54;100.00
35910;BME280;22004;49.120;-0.200;2023-11-19T05:13:59;101321.13;;;12.40;100.00
35910;BME280;22004;49.120;-0.200;2023-11-19T05:16:24;101315.41;;;12.44;100.00
35910;BME280;22004;49.120;-0.200;2023-11-19T05:18:50;101320.81;;;12.35;100.00
35910;BME280;22004;49.120;-0.200;2023-11-19T05:21:15;101323.94;;;12.24;100.00
35910;BME280;22004;49.120;-0.200;2023-11-19T05:23:42;101317.25;;;12.12;100.00
35910;BME280;22004;49.120;-0.200;2023-11-19T05:26:08;101323.41;;;12.29;100.00
35910;BME280;22004;49.120;-0.200;2023-11-19T05:28:37;101327.72;;;12.61;100.00
35910;BME280;22004;49.120;-0.200;2023-11-19T05:31:02;101333.56;;;12.19;100.00
35910;BME280;22004;49.120;-0.200;2023-11-19T05:33:28;101327.94;;;12.51;100.00
35910;BME280;22004;49.120;-0.200;2023-11-19T05:35:53;101328.69;;;12.68;100.00
35910;BME280;22004;49.120;-0.200;2023-11-19T05:38:18;101325.91;;;12.76;100.00
35910;BME280;22004;49.120;-0.200;2023-11-19T05:40:44;101315.44;;;12.35;100.00
35910;BME280;22004;49.120;-0.200;2023-11-19T05:43:09;101311.38;;;12.39;100.00
35910;BME280;22004;49.120;-0.200;2023-11-19T05:45:35;101313.50;;;12.21;100.00
35910;BME280;22004;49.120;-0.200;2023-11-19T05:48:01;101313.63;;;11.97;100.00
35910;BME280;22004;49.120;-0.200;2023-11-19T05:50:26;101310.22;;;12.03;100.00
35910;BME280;22004;49.120;-0.200;2023-11-19T05:52:51;101309.38;;;12.10;100.00
35910;BME280;22004;49.120;-0.200;2023-11-19T05:55:18;101310.16;;;11.80;100.00
35910;BME280;22004;49.120;-0.200;2023-11-19T05:57:44;101311.47;;;12.23;100.00
35910;BME280;22004;49.120;-0.200;2023-11-19T06:00:10;101319.09;;;12.11;100.00
35910;BME280;22004;49.120;-0.200;2023-11-19T06:02:36;101311.41;;;12.08;100.00
35910;BME280;22004;49.120;-0.200;2023-11-19T06:05:03;101312.25;;;12.09;100.00
35910;BME280;22004;49.120;-0.200;2023-11-19T06:07:31;101311.38;;;11.69;100.00
35910;BME280;22004;49.120;-0.200;2023-11-19T06:09:56;101322.09;;;11.85;100.00
35910;BME280;22004;49.120;-0.200;2023-11-19T06:12:22;101331.41;;;12.14;100.00
35910;BME280;22004;49.120;-0.200;2023-11-19T06:14:47;101319.09;;;12.11;100.00
35910;BME280;22004;49.120;-0.200;2023-11-19T06:17:12;101311.94;;;12.04;100.00
35910;BME280;22004;49.120;-0.200;2023-11-19T06:19:38;101309.03;;;12.13;100.00
35910;BME280;22004;49.120;-0.200;2023-11-19T06:22:04;101308.00;;;12.14;100.00
35910;BME280;22004;49.120;-0.200;2023-11-19T06:24:29;101310.75;;;11.98;100.00
35910;BME280;22004;49.120;-0.200;2023-11-19T06:26:54;101308.25;;;11.97;100.00
35910;BME280;22004;49.120;-0.200;2023-11-19T06:29:20;101318.09;;;12.12;100.00
35910;BME280;22004;49.120;-0.200;2023-11-19T06:31:45;101314.34;;;11.90;100.00
35910;BME280;22004;49.120;-0.200;2023-11-19T06:34:13;101310.06;;;12.04;100.00
35910;BME280;22004;49.120;-0.200;2023-11-19T06:36:39;101305.09;;;12.24;100.00
35910;BME280;22004;49.120;-0.200;2023-11-19T06:39:04;101311.00;;;11.88;100.00
35910;BME280;22004;49.120;-0.200;2023-11-19T06:41:31;101316.06;;;11.75;100.00
35910;BME280;22004;49.120;-0.200;2023-11-19T06:43:56;101316.91;;;11.76;100.00
35910;BME280;22004;49.120;-0.200;2023-11-19T06:46:21;101302.69;;;11.98;100.00
35910;BME280;22004;49.120;-0.200;2023-11-19T06:48:47;101314.69;;;11.87;100.00
35910;BME280;22004;49.120;-0.200;2023-11-19T06:51:12;101317.59;;;11.70;100.00
35910;BME280;22004;49.120;-0.200;2023-11-19T06:53:38;101316.03;;;11.83;100.00
35910;BME280;22004;49.120;-0.200;2023-11-19T06:56:05;101315.06;;;11.84;100.00
35910;BME280;22004;49.120;-0.200;2023-11-19T06:58:32;101319.09;;;11.72;100.00
35910;BME280;22004;49.120;-0.200;2023-11-19T07:00:57;101317.75;;;11.68;100.00
35910;BME280;22004;49.120;-0.200;2023-11-19T07:03:23;101316.28;;;12.05;100.00
35910;BME280;22004;49.120;-0.200;2023-11-19T07:05:48;101317.03;;;11.90;100.00
35910;BME280;22004;49.120;-0.200;2023-11-19T07:08:13;101319.72;;;12.22;100.00
35910;BME280;22004;49.120;-0.200;2023-11-19T07:10:39;101312.28;;;12.01;100.00
35910;BME280;22004;49.120;-0.200;2023-11-19T07:13:05;101306.53;;;11.64;100.00
35910;BME280;22004;49.120;-0.200;2023-11-19T07:15:31;101315.31;;;11.98;100.00
35910;BME280;22004;49.120;-0.200;2023-11-19T07:17:57;101315.59;;;12.11;100.00
35910;BME280;22004;49.120;-0.200;2023-11-19T07:20:24;101310.66;;;11.83;100.00
35910;BME280;22004;49.120;-0.200;2023-11-19T07:22:51;101315.25;;;12.14;100.00
35910;BME280;22004;49.120;-0.200;2023-11-19T07:25:17;101311.78;;;11.97;100.00
35910;BME280;22004;49.120;-0.200;2023-11-19T07:27:43;101314.56;;;12.12;100.00
35910;BME280;22004;49.120;-0.200;2023-11-19T07:30:08;101308.03;;;12.06;100.00
35910;BME280;22004;49.120;-0.200;2023-11-19T07:32:33;101314.22;;;11.76;100.00
35910;BME280;22004;49.120;-0.200;2023-11-19T07:34:59;101319.81;;;11.58;100.00
35910;BME280;22004;49.120;-0.200;2023-11-19T07:37:24;101304.41;;;11.91;100.00
35910;BME280;22004;49.120;-0.200;2023-11-19T07:39:50;101318.00;;;11.98;100.00
35910;BME280;22004;49.120;-0.200;2023-11-19T07:42:15;101307.53;;;12.03;100.00
35910;BME280;22004;49.120;-0.200;2023-11-19T07:44:40;101315.50;;;11.96;100.00
35910;BME280;22004;49.120;-0.200;2023-11-19T07:47:06;101317.91;;;11.83;100.00
35910;BME280;22004;49.120;-0.200;2023-11-19T07:49:32;101318.97;;;11.65;100.00
35910;BME280;22004;49.120;-0.200;2023-11-19T07:51:58;101325.28;;;11.81;100.00
35910;BME280;22004;49.120;-0.200;2023-11-19T07:54:23;101330.69;;;11.73;100.00
35910;BME280;22004;49.120;-0.200;2023-11-19T07:56:49;101326.31;;;11.80;100.00
35910;BME280;22004;49.120;-0.200;2023-11-19T07:59:15;101323.75;;;11.78;100.00
35910;BME280;22004;49.120;-0.200;2023-11-19T08:01:41;101324.53;;;12.03;100.00
35910;BME280;22004;49.120;-0.200;2023-11-19T08:04:06;101318.63;;;12.08;100.00
35910;BME280;22004;49.120;-0.200;2023-11-19T08:06:31;101319.78;;;11.74;100.00
35910;BME280;22004;49.120;-0.200;2023-11-19T08:08:57;101323.94;;;12.24;100.00
35910;BME280;22004;49.120;-0.200;2023-11-19T08:11:22;101333.81;;;11.93;100.00
35910;BME280;22004;49.120;-0.200;2023-11-19T08:13:48;101338.72;;;11.81;100.00
35910;BME280;22004;49.120;-0.200;2023-11-19T08:16:13;101336.50;;;12.01;100.00
35910;BME280;22004;49.120;-0.200;2023-11-19T08:18:41;101338.84;;;12.04;100.00
35910;BME280;22004;49.120;-0.200;2023-11-19T08:21:07;101348.28;;;12.00;100.00
35910;BME280;22004;49.120;-0.200;2023-11-19T08:23:33;101346.13;;;11.95;100.00
35910;BME280;22004;49.120;-0.200;2023-11-19T08:25:59;101353.38;;;11.86;100.00
35910;BME280;22004;49.120;-0.200;2023-11-19T08:28:25;101349.13;;;11.92;100.00
35910;BME280;22004;49.120;-0.200;2023-11-19T08:30:50;101343.44;;;11.87;100.00
35910;BME280;22004;49.120;-0.200;2023-11-19T08:33:16;101350.16;;;11.91;100.00
35910;BME280;22004;49.120;-0.200;2023-11-19T08:35:42;101352.66;;;11.93;100.00
35910;BME280;22004;49.120;-0.200;2023-11-19T08:38:07;101357.38;;;11.99;100.00
35910;BME280;22004;49.120;-0.200;2023-11-19T08:40:32;101358.44;;;12.21;100.00
35910;BME280;22004;49.120;-0.200;2023-11-19T08:42:58;101364.84;;;12.20;100.00
35910;BME280;22004;49.120;-0.200;2023-11-19T08:45:23;101372.13;;;12.03;100.00
35910;BME280;22004;49.120;-0.200;2023-11-19T08:47:48;101372.44;;;12.08;100.00
35910;BME280;22004;49.120;-0.200;2023-11-19T08:50:14;101365.38;;;12.15;100.00
35910;BME280;22004;49.120;-0.200;2023-11-19T08:52:39;101363.25;;;12.33;100.00
35910;BME280;22004;49.120;-0.200;2023-11-19T08:55:05;101368.38;;;12.20;100.00
35910;BME280;22004;49.120;-0.200;2023-11-19T08:57:31;101369.06;;;12.45;100.00
35910;BME280;22004;49.120;-0.200;2023-11-19T08:59:56;101365.53;;;12.45;100.00
35910;BME280;22004;49.120;-0.200;2023-11-19T09:02:21;101370.22;;;12.51;100.00
35910;BME280;22004;49.120;-0.200;2023-11-19T09:04:47;101366.56;;;12.66;100.00
35910;BME280;22004;49.120;-0.200;2023-11-19T09:07:12;101370.97;;;12.36;100.00
35910;BME280;22004;49.120;-0.200;2023-11-19T09:09:38;101372.84;;;12.59;100.00
35910;BME280;22004;49.120;-0.200;2023-11-19T09:12:03;101375.72;;;12.80;100.00
35910;BME280;22004;49.120;-0.200;2023-11-19T09:14:29;101374.94;;;12.72;100.00
35910;BME280;22004;49.120;-0.200;2023-11-19T09:16:56;101375.13;;;12.70;100.00
35910;BME280;22004;49.120;-0.200;2023-11-19T09:19:21;101373.47;;;12.69;100.00
35910;BME280;22004;49.120;-0.200;2023-11-19T09:21:46;101362.50;;;12.71;99.79
35910;BME280;22004;49.120;-0.200;2023-11-19T09:24:14;101358.53;;;12.81;99.54
35910;BME280;22004;49.120;-0.200;2023-11-19T09:26:40;101365.00;;;12.95;99.59
35910;BME280;22004;49.120;-0.200;2023-11-19T09:29:07;101357.94;;;12.94;99.00
35910;BME280;22004;49.120;-0.200;2023-11-19T09:31:33;101355.31;;;12.86;98.31
35910;BME280;22004;49.120;-0.200;2023-11-19T09:33:58;101365.13;;;13.02;98.75
35910;BME280;22004;49.120;-0.200;2023-11-19T09:36:23;101356.56;;;12.98;98.04
35910;BME280;22004;49.120;-0.200;2023-11-19T09:38:49;101361.97;;;12.98;98.95
35910;BME280;22004;49.120;-0.200;2023-11-19T09:41:15;101360.41;;;13.04;99.16
35910;BME280;22004;49.120;-0.200;2023-11-19T09:43:41;101350.06;;;13.07;98.49
35910;BME280;22004;49.120;-0.200;2023-11-19T09:46:08;101361.53;;;13.09;97.29
35910;BME280;22004;49.120;-0.200;2023-11-19T09:48:37;101362.91;;;13.28;97.68
35910;BME280;22004;49.120;-0.200;2023-11-19T09:51:04;101364.81;;;13.19;96.36
35910;BME280;22004;49.120;-0.200;2023-11-19T09:53:30;101356.69;;;13.28;97.91
35910;BME280;22004;49.120;-0.200;2023-11-19T09:55:55;101348.59;;;13.28;95.39
35910;BME280;22004;49.120;-0.200;2023-11-19T09:58:21;101366.53;;;13.12;94.77
35910;BME280;22004;49.120;-0.200;2023-11-19T10:00:47;101352.97;;;13.29;96.40
35910;BME280;22004;49.120;-0.200;2023-11-19T10:03:13;101359.69;;;13.48;96.43
35910;BME280;22004;49.120;-0.200;2023-11-19T10:05:39;101363.84;;;13.35;95.85
35910;BME280;22004;49.120;-0.200;2023-11-19T10:08:05;101362.06;;;13.42;96.08
35910;BME280;22004;49.120;-0.200;2023-11-19T10:10:31;101371.84;;;13.43;93.92
35910;BME280;22004;49.120;-0.200;2023-11-19T10:12:56;101350.38;;;13.50;95.57
35910;BME280;22004;49.120;-0.200;2023-11-19T10:15:23;101369.44;;;13.49;94.07
35910;BME280;22004;49.120;-0.200;2023-11-19T10:17:56;101355.41;;;13.53;95.59
35910;BME280;22004;49.120;-0.200;2023-11-19T10:20:22;101362.66;;;13.38;92.92
35910;BME280;22004;49.120;-0.200;2023-11-19T10:22:47;101360.88;;;13.45;93.01
35910;BME280;22004;49.120;-0.200;2023-11-19T10:25:26;101347.41;;;13.60;93.19
35910;BME280;22004;49.120;-0.200;2023-11-19T10:27:53;101353.16;;;13.71;92.95
35910;BME280;22004;49.120;-0.200;2023-11-19T10:30:26;101352.59;;;13.61;92.57
35910;BME280;22004;49.120;-0.200;2023-11-19T10:33:13;101352.44;;;13.78;93.33
35910;BME280;22004;49.120;-0.200;2023-11-19T10:35:56;101357.84;;;13.78;90.39
35910;BME280;22004;49.120;-0.200;2023-11-19T10:38:23;101366.00;;;13.69;92.17
35910;BME280;22004;49.120;-0.200;2023-11-19T10:40:49;101367.41;;;13.80;92.01
35910;BME280;22004;49.120;-0.200;2023-11-19T10:43:16;101370.19;;;13.72;93.10
35910;BME280;22004;49.120;-0.200;2023-11-19T10:45:43;101370.78;;;13.67;93.21
35910;BME280;22004;49.120;-0.200;2023-11-19T10:48:08;101366.84;;;13.70;91.44
35910;BME280;22004;49.120;-0.200;2023-11-19T10:50:39;101366.09;;;13.76;90.59
35910;BME280;22004;49.120;-0.200;2023-11-19T10:53:06;101378.84;;;13.82;90.06
35910;BME280;22004;49.120;-0.200;2023-11-19T10:55:33;101381.44;;;13.76;92.77
35910;BME280;22004;49.120;-0.200;2023-11-19T10:58:04;101378.19;;;13.65;92.46
35910;BME280;22004;49.120;-0.200;2023-11-19T11:03:08;101370.09;;;13.80;90.55
35910;BME280;22004;49.120;-0.200;2023-11-19T11:05:36;101367.03;;;13.98;90.02
35910;BME280;22004;49.120;-0.200;2023-11-19T11:08:04;101373.34;;;14.05;90.44
35910;BME280;22004;49.120;-0.200;2023-11-19T11:10:32;101366.47;;;13.88;89.55
35910;BME280;22004;49.120;-0.200;2023-11-19T11:13:03;101352.78;;;14.04;89.29
35910;BME280;22004;49.120;-0.200;2023-11-19T11:15:30;101361.50;;;14.06;87.34
35910;BME280;22004;49.120;-0.200;2023-11-19T11:17:59;101362.72;;;14.18;88.97
35910;BME280;22004;49.120;-0.200;2023-11-19T11:20:30;101352.19;;;14.23;88.86
35910;BME280;22004;49.120;-0.200;2023-11-19T11:23:25;101357.44;;;14.32;87.74
35910;BME280;22004;49.120;-0.200;2023-11-19T11:26:23;101346.94;;;14.22;86.02
35910;BME280;22004;49.120;-0.200;2023-11-19T11:37:21;101356.09;;;14.06;90.46
35910;BME280;22004;49.120;-0.200;2023-11-19T11:39:51;101350.09;;;13.89;90.43
35910;BME280;22004;49.120;-0.200;2023-11-19T11:50:20;101356.16;;;14.42;88.08
35910;BME280;22004;49.120;-0.200;2023-11-19T11:58:32;101339.31;;;14.26;87.53
35910;BME280;22004;49.120;-0.200;2023-11-19T12:00:58;101344.81;;;14.32;88.37
35910;BME280;22004;49.120;-0.200;2023-11-19T12:03:27;101330.66;;;14.30;87.53
35910;BME280;22004;49.120;-0.200;2023-11-19T12:05:52;101336.38;;;14.42;86.36
35910;BME280;22004;49.120;-0.200;2023-11-19T12:08:19;101337.03;;;14.44;85.23
35910;BME280;22004;49.120;-0.200;2023-11-19T12:10:56;101326.53;;;14.49;86.12
35910;BME280;22004;49.120;-0.200;2023-11-19T12:13:29;101337.94;;;14.15;87.59
35910;BME280;22004;49.120;-0.200;2023-11-19T12:18:26;101330.69;;;14.52;85.08
35910;BME280;22004;49.120;-0.200;2023-11-19T12:20:52;101330.31;;;14.55;85.80
35910;BME280;22004;49.120;-0.200;2023-11-19T12:23:17;101330.53;;;14.53;85.57
35910;BME280;22004;49.120;-0.200;2023-11-19T12:25:43;101334.94;;;14.25;86.09
35910;BME280;22004;49.120;-0.200;2023-11-19T12:28:14;101318.84;;;14.16;87.44
35910;BME280;22004;49.120;-0.200;2023-11-19T12:30:41;101328.41;;;14.34;87.66
35910;BME280;22004;49.120;-0.200;2023-11-19T12:33:10;101327.25;;;14.43;86.64
35910;BME280;22004;49.120;-0.200;2023-11-19T12:35:43;101317.13;;;14.09;87.57
35910;BME280;22004;49.120;-0.200;2023-11-19T12:38:25;101323.34;;;14.09;88.61
35910;BME280;22004;49.120;-0.200;2023-11-19T12:41:08;101317.19;;;14.37;87.86
35910;BME280;22004;49.120;-0.200;2023-11-19T12:43:33;101316.59;;;14.56;84.99
35910;BME280;22004;49.120;-0.200;2023-11-19T12:46:21;101326.59;;;14.41;84.91
35910;BME280;22004;49.120;-0.200;2023-11-19T12:48:48;101340.03;;;14.34;86.83
35910;BME280;22004;49.120;-0.200;2023-11-19T12:51:14;101320.94;;;14.36;86.41
35910;BME280;22004;49.120;-0.200;2023-11-19T12:53:52;101298.94;;;14.17;85.67
35910;BME280;22004;49.120;-0.200;2023-11-19T12:56:22;101315.84;;;14.26;85.45
35910;BME280;22004;49.120;-0.200;2023-11-19T12:58:48;101294.91;;;14.28;85.73